createdAt,value
2018-01-17T00:02:12.403Z,7.30
2018-01-17T00:04:39.075Z,8.47
2018-01-17T00:07:05.876Z,7.33
2018-01-17T00:09:33.259Z,8.53
2018-01-17T00:12:00.014Z,8.10
2018-01-17T00:14:26.928Z,9.73
2018-01-17T00:16:54.415Z,7.83
2018-01-17T00:19:21.165Z,7.20
2018-01-17T00:21:47.907Z,7.87
2018-01-17T00:24:14.964Z,6.97
2018-01-17T00:26:41.712Z,6.67
2018-01-17T00:29:08.863Z,7.13
2018-01-17T00:31:35.612Z,7.07
2018-01-17T00:34:02.460Z,7.17
2018-01-17T00:36:29.310Z,7.00
2018-01-17T00:38:56.666Z,6.33
2018-01-17T00:41:23.422Z,7.33
2018-01-17T00:43:50.375Z,7.10
2018-01-17T00:46:17.124Z,6.93
2018-01-17T00:48:43.833Z,8.10
2018-01-17T00:51:11.321Z,6.87
2018-01-17T00:53:38.065Z,7.30
2018-01-17T00:56:04.764Z,7.30
2018-01-17T00:58:33.812Z,9.83
2018-01-17T01:01:00.657Z,6.60
2018-01-17T01:03:27.404Z,7.07
2018-01-17T01:05:54.150Z,6.93
2018-01-17T01:08:21.104Z,7.40
2018-01-17T01:10:48.173Z,6.73
2018-01-17T01:13:14.844Z,9.43
2018-01-17T01:15:42.566Z,7.23
2018-01-17T01:18:10.135Z,7.00
2018-01-17T01:20:36.963Z,9.60
2018-01-17T01:23:04.443Z,6.63
2018-01-17T01:25:31.193Z,7.97
2018-01-17T01:27:57.936Z,7.50
2018-01-17T01:30:24.620Z,6.83
2018-01-17T01:32:51.326Z,6.60
2018-01-17T01:35:18.074Z,7.33
2018-01-17T01:37:44.818Z,8.67
2018-01-17T01:40:11.775Z,7.63
2018-01-17T01:42:38.621Z,7.83
2018-01-17T01:45:05.467Z,8.10
2018-01-17T01:47:32.322Z,7.33
2018-01-17T01:49:59.040Z,7.43
2018-01-17T01:52:26.835Z,8.03
2018-01-17T01:54:53.892Z,8.27
2018-01-17T01:57:20.632Z,8.27
2018-01-17T01:59:47.381Z,8.10
2018-01-17T02:02:14.228Z,7.33
2018-01-17T02:04:41.768Z,7.87
2018-01-17T02:07:08.844Z,7.00
2018-01-17T02:09:36.003Z,8.63
2018-01-17T02:12:03.052Z,7.53
2018-01-17T02:14:29.776Z,7.20
2018-01-17T02:16:57.363Z,7.57
2018-01-17T02:19:24.114Z,7.73
2018-01-17T02:21:51.064Z,7.27
2018-01-17T02:24:17.910Z,7.13
2018-01-17T02:26:45.273Z,7.30
2018-01-17T02:29:11.992Z,7.60
2018-01-17T02:31:39.371Z,7.43
2018-01-17T02:34:06.437Z,7.93
2018-01-17T02:36:33.176Z,7.93
2018-01-17T02:38:59.925Z,7.70
2018-01-17T02:41:26.669Z,6.80
2018-01-17T02:43:53.415Z,6.60
2018-01-17T02:46:20.163Z,6.67
2018-01-17T02:48:47.524Z,7.50
2018-01-17T02:51:14.472Z,6.97
2018-01-17T02:53:41.631Z,7.03
2018-01-17T02:56:08.684Z,6.70
2018-01-17T02:58:35.738Z,6.77
2018-01-17T03:01:02.485Z,7.63
2018-01-17T03:03:29.635Z,7.03
2018-01-17T03:05:56.690Z,8.13
2018-01-17T03:08:23.536Z,6.90
2018-01-17T03:10:50.284Z,7.97
2018-01-17T03:13:17.951Z,7.53
2018-01-17T03:15:45.005Z,10.23
2018-01-17T03:18:11.750Z,7.57
2018-01-17T03:20:38.500Z,7.73
2018-01-17T03:23:05.181Z,7.90
2018-01-17T03:25:32.808Z,7.20
2018-01-17T03:27:59.556Z,7.33
2018-01-17T03:30:26.304Z,7.47
2018-01-17T03:32:53.153Z,7.30
2018-01-17T03:35:20.054Z,6.53
2018-01-17T03:37:46.746Z,6.43
2018-01-17T03:40:13.491Z,6.77
2018-01-17T03:42:40.445Z,6.70
2018-01-17T03:45:07.190Z,7.07
2018-01-17T03:47:33.934Z,7.40
2018-01-17T03:50:00.888Z,6.87
2018-01-17T03:52:27.630Z,6.87
2018-01-17T03:54:54.483Z,7.50
2018-01-17T03:57:21.334Z,7.27
2018-01-17T03:59:48.074Z,9.43
2018-01-17T04:02:14.824Z,8.03
2018-01-17T04:04:41.567Z,8.03
2018-01-17T04:07:08.313Z,8.50
2018-01-17T04:09:35.264Z,8.97
2018-01-17T04:12:02.010Z,8.10
2018-01-17T04:14:29.580Z,8.07
2018-01-17T04:16:56.525Z,7.90
2018-01-17T04:19:23.788Z,8.17
2018-01-17T04:21:50.638Z,10.23
2018-01-17T04:24:17.276Z,7.10
2018-01-17T04:26:43.972Z,7.63
2018-01-17T04:29:10.768Z,7.60
2018-01-17T04:31:37.491Z,7.83
2018-01-17T04:34:05.057Z,6.90
2018-01-17T04:36:32.542Z,9.97
2018-01-17T04:38:59.368Z,8.07
2018-01-17T04:41:26.958Z,8.40
2018-01-17T04:44:16.358Z,7.43
2018-01-17T04:46:42.983Z,7.13
2018-01-17T04:49:09.709Z,7.03
2018-01-17T04:51:36.457Z,7.17
2018-01-17T04:54:03.203Z,11.00
2018-01-17T04:56:30.461Z,7.70
2018-01-17T04:58:57.310Z,7.83
2018-01-17T05:01:24.160Z,8.27
2018-01-17T05:03:51.823Z,7.30
2018-01-17T05:06:18.569Z,7.20
2018-01-17T05:08:45.417Z,7.00
2018-01-17T05:11:12.370Z,7.63
2018-01-17T05:13:39.117Z,6.90
2018-01-17T05:16:06.785Z,7.33
2018-01-17T05:18:33.942Z,7.23
2018-01-17T05:21:00.685Z,8.07
2018-01-17T05:23:27.431Z,7.73
2018-01-17T05:25:54.284Z,7.27
2018-01-17T05:28:21.003Z,7.13
2018-01-17T05:30:48.591Z,6.93
2018-01-17T05:33:15.339Z,6.67
2018-01-17T05:35:42.188Z,7.37
2018-01-17T05:38:09.045Z,6.53
2018-01-17T05:40:35.783Z,6.90
2018-01-17T05:43:02.526Z,7.97
2018-01-17T05:45:29.373Z,8.03
2018-01-17T05:47:56.120Z,6.87
2018-01-17T05:50:23.280Z,7.50
2018-01-17T05:52:50.333Z,6.70
2018-01-17T05:55:17.180Z,6.23
2018-01-17T05:57:44.029Z,6.67
2018-01-17T06:00:10.977Z,7.30
2018-01-17T06:02:37.729Z,8.53
2018-01-17T06:05:04.472Z,7.30
2018-01-17T06:07:31.420Z,7.03
2018-01-17T06:09:59.082Z,6.40
2018-01-17T06:12:26.553Z,7.33
2018-01-17T06:14:53.811Z,7.03
2018-01-17T06:17:20.760Z,6.90
2018-01-17T06:19:49.023Z,8.07
2018-01-17T06:22:15.874Z,7.47
2018-01-17T06:24:43.327Z,6.97
2018-01-17T06:27:10.814Z,9.30
2018-01-17T06:29:37.667Z,7.60
2018-01-17T06:32:04.413Z,7.53
2018-01-17T06:34:31.159Z,6.97
2018-01-17T06:36:58.930Z,6.83
2018-01-17T06:39:25.675Z,7.30
2018-01-17T06:41:52.519Z,6.93
2018-01-17T06:44:19.475Z,6.50
2018-01-17T06:46:46.326Z,7.23
2018-01-17T06:49:13.069Z,6.63
2018-01-17T06:51:39.916Z,6.80
2018-01-17T06:54:07.073Z,8.03
2018-01-17T06:56:34.044Z,6.83
2018-01-17T06:59:00.873Z,7.83
2018-01-17T07:01:27.820Z,7.07
2018-01-17T07:03:56.105Z,6.70
2018-01-17T07:06:22.950Z,8.13
2018-01-17T07:08:49.673Z,6.83
2018-01-17T07:11:17.270Z,6.20
2018-01-17T07:13:44.007Z,6.93
2018-01-17T07:16:11.575Z,6.90
2018-01-17T07:18:39.546Z,6.60
2018-01-17T07:21:06.398Z,7.03
2018-01-17T07:23:33.244Z,7.03
2018-01-17T07:25:59.990Z,5.90
2018-01-17T07:28:26.736Z,6.10
2018-01-17T07:30:53.688Z,6.40
2018-01-17T07:33:20.538Z,6.90
2018-01-17T07:35:47.488Z,6.10
2018-01-17T07:38:14.747Z,11.77
2018-01-17T07:40:41.596Z,6.63
2018-01-17T07:43:08.246Z,6.83
2018-01-17T07:45:35.608Z,5.77
2018-01-17T07:48:02.328Z,7.37
2018-01-17T07:50:29.810Z,5.90
2018-01-17T07:52:56.556Z,6.40
2018-01-17T07:55:23.404Z,7.30
2018-01-17T07:57:50.447Z,6.50
2018-01-17T08:00:17.201Z,6.13
2018-01-17T08:02:43.851Z,6.10
2018-01-17T08:05:10.898Z,6.70
2018-01-17T08:07:37.951Z,6.70
2018-01-17T08:10:04.813Z,6.93
2018-01-17T08:12:31.753Z,6.63
2018-01-17T08:14:58.807Z,7.23
2018-01-17T08:17:25.655Z,7.07
2018-01-17T08:19:53.220Z,7.13
2018-01-17T08:22:20.173Z,6.57
2018-01-17T08:24:46.893Z,6.17
2018-01-17T08:27:14.381Z,6.47
2018-01-17T08:29:41.229Z,6.53
2018-01-17T08:32:08.074Z,6.67
2018-01-17T08:34:34.862Z,6.73
2018-01-17T08:37:01.569Z,7.10
2018-01-17T08:39:28.531Z,6.63
2018-01-17T08:41:55.264Z,7.73
2018-01-17T08:44:22.114Z,6.20
2018-01-17T08:46:48.964Z,6.73
2018-01-17T08:49:15.711Z,7.17
2018-01-17T08:51:42.454Z,6.63
2018-01-17T08:54:09.302Z,8.13
2018-01-17T08:56:36.057Z,6.37
2018-01-17T08:59:02.702Z,6.53
2018-01-17T09:01:29.544Z,7.57
2018-01-17T09:03:56.287Z,6.90
2018-01-17T09:06:23.036Z,6.77
2018-01-17T09:08:49.782Z,7.13
2018-01-17T09:11:16.527Z,7.10
2018-01-17T09:13:43.274Z,7.30
2018-01-17T09:16:10.439Z,7.50
2018-01-17T09:18:37.378Z,10.03
2018-01-17T09:21:04.125Z,7.43
2018-01-17T09:23:31.079Z,6.97
2018-01-17T09:25:57.829Z,7.73
2018-01-17T09:28:24.674Z,7.30
2018-01-17T09:30:51.522Z,6.73
2018-01-17T09:33:18.265Z,7.27
2018-01-17T09:35:45.727Z,7.03
2018-01-17T09:38:12.474Z,7.37
2018-01-17T09:40:39.120Z,7.63
2018-01-17T09:43:06.793Z,8.37
2018-01-17T09:45:33.636Z,8.20
2018-01-17T09:48:00.261Z,8.77
2018-01-17T09:50:27.000Z,7.43
2018-01-17T09:52:55.104Z,6.77
2018-01-17T09:55:22.153Z,7.50
2018-01-17T09:57:49.718Z,7.10
2018-01-17T10:00:16.567Z,7.13
2018-01-17T10:02:43.415Z,8.40
2018-01-17T10:05:10.268Z,8.07
2018-01-17T10:07:37.115Z,8.00
2018-01-17T10:10:03.963Z,7.57
2018-01-17T10:12:30.710Z,7.47
2018-01-17T10:14:57.663Z,7.70
2018-01-17T10:17:24.404Z,7.33
2018-01-17T10:19:51.154Z,8.63
2018-01-17T10:22:18.106Z,7.53
2018-01-17T10:24:45.236Z,7.93
2018-01-17T10:27:12.826Z,7.07
2018-01-17T10:29:39.674Z,6.83
2018-01-17T10:32:06.520Z,7.37
2018-01-17T10:34:33.577Z,7.83
2018-01-17T10:37:00.324Z,7.30
2018-01-17T10:39:27.679Z,7.77
2018-01-17T10:41:54.844Z,7.90
2018-01-17T10:44:21.583Z,7.50
2018-01-17T10:46:48.532Z,7.67
2018-01-17T10:49:16.100Z,7.27
2018-01-17T10:51:44.947Z,7.07
2018-01-17T10:54:12.864Z,7.50
2018-01-17T10:56:39.921Z,7.53
2018-01-17T10:59:06.871Z,7.63
2018-01-17T11:01:33.721Z,6.80
2018-01-17T11:04:00.774Z,6.90
2018-01-17T11:06:27.516Z,7.67
2018-01-17T11:08:54.777Z,7.07
2018-01-17T11:11:21.522Z,7.37
2018-01-17T11:13:48.679Z,7.30
2018-01-17T11:16:15.425Z,7.80
2018-01-17T11:18:42.172Z,7.43
2018-01-17T11:21:08.918Z,8.00
2018-01-17T11:23:36.480Z,7.63
2018-01-17T11:26:03.945Z,7.80
2018-01-17T11:28:30.691Z,7.43
2018-01-17T11:30:57.538Z,7.43
2018-01-17T11:33:24.288Z,7.73
2018-01-17T11:35:51.134Z,6.83
2018-01-17T11:38:17.878Z,8.03
2018-01-17T11:40:44.538Z,8.23
2018-01-17T11:43:11.374Z,7.80
2018-01-17T11:45:38.092Z,7.40
2018-01-17T11:48:04.968Z,8.20
2018-01-17T11:50:32.842Z,7.57
2018-01-17T11:52:59.584Z,8.13
2018-01-17T11:55:26.330Z,8.30
2018-01-17T11:57:53.282Z,8.50
2018-01-17T12:00:20.129Z,7.57
2018-01-17T12:02:46.772Z,6.80
2018-01-17T12:05:13.627Z,7.50
2018-01-17T12:07:40.370Z,7.20
2018-01-17T12:10:07.117Z,7.73
2018-01-17T12:12:34.069Z,9.47
2018-01-17T12:15:00.811Z,7.23
2018-01-17T12:17:27.558Z,8.33
2018-01-17T12:19:54.303Z,7.17
2018-01-17T12:22:21.870Z,7.33
2018-01-17T12:24:48.818Z,7.10
2018-01-17T12:27:15.876Z,7.23
2018-01-17T12:29:42.723Z,7.57
2018-01-17T12:32:09.569Z,7.77
2018-01-17T12:34:36.422Z,6.97
2018-01-17T12:37:03.171Z,7.77
2018-01-17T12:39:30.118Z,7.93
2018-01-17T12:41:57.253Z,7.70
2018-01-17T12:44:24.019Z,7.00
2018-01-17T12:46:50.866Z,7.03
2018-01-17T12:49:17.615Z,7.30
2018-01-17T12:51:44.465Z,7.87
2018-01-17T12:54:11.326Z,7.67
2018-01-17T12:56:38.055Z,7.07
2018-01-17T12:59:05.008Z,6.53
2018-01-17T13:01:31.958Z,6.97
2018-01-17T13:03:58.805Z,6.97
2018-01-17T13:06:25.528Z,7.70
2018-01-17T13:08:53.323Z,8.07
2018-01-17T13:11:20.173Z,6.57
2018-01-17T13:13:47.837Z,8.20
2018-01-17T13:16:14.788Z,7.23
2018-01-17T13:18:41.640Z,7.87
2018-01-17T13:21:08.280Z,6.77
2018-01-17T13:23:35.129Z,7.77
2018-01-17T13:26:02.184Z,6.87
2018-01-17T13:28:29.133Z,7.30
2018-01-17T13:30:55.880Z,7.43
2018-01-17T13:33:22.628Z,7.53
2018-01-17T13:35:49.681Z,7.37
2018-01-17T13:38:16.430Z,7.27
2018-01-17T13:40:43.174Z,7.40
2018-01-17T13:43:10.023Z,7.73
2018-01-17T13:45:37.384Z,7.80
2018-01-17T13:48:04.535Z,8.10
2018-01-17T13:50:31.384Z,8.40
2018-01-17T13:52:58.130Z,8.33
2018-01-17T13:55:24.817Z,8.63
2018-01-17T13:57:51.627Z,8.53
2018-01-17T14:00:18.987Z,9.10
2018-01-17T14:02:45.832Z,7.00
2018-01-17T14:05:12.580Z,7.67
2018-01-17T14:07:39.323Z,7.40
2018-01-17T14:10:06.173Z,7.10
2018-01-17T14:12:33.229Z,8.30
2018-01-17T14:14:59.975Z,8.43
2018-01-17T14:17:27.336Z,9.17
2018-01-17T14:19:54.285Z,7.47
2018-01-17T14:22:21.135Z,7.90
2018-01-17T14:24:48.595Z,8.17
2018-01-17T14:27:15.650Z,8.20
2018-01-17T14:29:42.500Z,8.20
2018-01-17T14:32:09.452Z,8.30
2018-01-17T14:34:36.310Z,6.93
2018-01-17T14:37:03.394Z,8.37
2018-01-17T14:39:31.528Z,8.20
2018-01-17T14:41:58.581Z,7.90
2018-01-17T14:44:25.739Z,8.53
2018-01-17T14:46:53.609Z,8.20
2018-01-17T14:49:21.275Z,7.43
2018-01-17T14:51:48.844Z,8.43
2018-01-17T14:54:15.587Z,8.70
2018-01-17T14:56:42.439Z,8.63
2018-01-17T14:59:09.181Z,8.07
2018-01-17T15:01:36.773Z,8.60
2018-01-17T15:04:03.913Z,8.50
2018-01-17T15:06:31.366Z,7.87
2018-01-17T15:08:58.316Z,8.57
2018-01-17T15:11:25.015Z,8.83
2018-01-17T15:13:51.706Z,8.27
2018-01-17T15:16:18.762Z,8.23
2018-01-17T15:18:45.609Z,8.27
2018-01-17T15:21:12.967Z,8.10
2018-01-17T15:23:39.791Z,8.63
2018-01-17T15:26:07.101Z,7.70
2018-01-17T15:28:34.336Z,8.90
2018-01-17T15:31:01.489Z,8.17
2018-01-17T15:33:28.441Z,8.87
2018-01-17T15:35:55.389Z,7.77
2018-01-17T15:38:22.139Z,9.77
2018-01-17T15:40:48.987Z,8.03
2018-01-17T15:43:16.041Z,9.43
2018-01-17T15:45:43.461Z,8.80
2018-01-17T15:48:11.252Z,8.30
2018-01-17T15:50:38.941Z,9.37
2018-01-17T15:53:06.198Z,9.93
2018-01-17T15:55:33.148Z,7.97
2018-01-17T15:58:00.201Z,8.53
2018-01-17T16:00:26.945Z,8.53
2018-01-17T16:02:53.691Z,9.57
2018-01-17T16:05:20.642Z,8.93
2018-01-17T16:07:47.491Z,8.83
2018-01-17T16:10:14.653Z,10.87
2018-01-17T16:12:41.498Z,8.83
2018-01-17T16:15:08.347Z,9.63
2018-01-17T16:17:35.192Z,9.37
2018-01-17T16:20:02.386Z,8.03
2018-01-17T16:22:29.605Z,8.50
2018-01-17T16:24:56.660Z,8.90
2018-01-17T16:27:24.327Z,8.73
2018-01-17T16:29:51.277Z,8.10
2018-01-17T16:32:18.231Z,9.20
2018-01-17T16:34:46.798Z,7.93
2018-01-17T16:37:14.282Z,9.10
2018-01-17T16:39:41.570Z,8.77
2018-01-17T16:42:08.694Z,7.40
2018-01-17T16:44:35.745Z,10.23
2018-01-17T16:47:02.469Z,9.60
2018-01-17T16:49:30.270Z,9.60
2018-01-17T16:51:57.929Z,9.23
2018-01-17T16:54:24.880Z,8.60
2018-01-17T16:56:52.137Z,7.90
2018-01-17T16:59:18.883Z,8.97
2018-01-17T17:01:45.896Z,10.60
2018-01-17T17:04:13.051Z,9.17
2018-01-17T17:06:39.941Z,9.63
2018-01-17T17:09:06.690Z,8.10
2018-01-17T17:11:33.536Z,9.73
2018-01-17T17:14:00.693Z,8.70
2018-01-17T17:16:27.543Z,8.80
2018-01-17T17:18:54.700Z,8.93
2018-01-17T17:21:21.442Z,8.77
2018-01-17T17:23:48.700Z,10.10
2018-01-17T17:26:15.447Z,9.43
2018-01-17T17:28:42.397Z,9.93
2018-01-17T17:31:09.249Z,8.60
2018-01-17T17:33:36.503Z,9.90
2018-01-17T17:36:04.480Z,9.77
2018-01-17T17:38:31.638Z,8.97
2018-01-17T17:40:58.481Z,8.87
2018-01-17T17:43:25.332Z,9.67
2018-01-17T17:45:52.181Z,9.83
2018-01-17T17:48:26.094Z,10.33
2018-01-17T17:50:53.246Z,9.40
2018-01-17T17:53:19.989Z,10.70
2018-01-17T17:55:46.838Z,13.03
2018-01-17T17:58:13.687Z,13.47
2018-01-17T18:00:40.436Z,10.13
2018-01-17T18:03:07.180Z,12.37
2018-01-17T18:05:34.033Z,10.93
2018-01-17T18:08:00.877Z,11.17
2018-01-17T18:10:27.729Z,11.50
2018-01-17T18:12:54.474Z,10.33
2018-01-17T18:15:21.326Z,10.40
2018-01-17T18:17:48.044Z,9.77
2018-01-17T18:20:14.814Z,9.60
2018-01-17T18:22:42.071Z,10.63
2018-01-17T18:25:08.918Z,8.97
2018-01-17T18:27:35.714Z,9.40
2018-01-17T18:30:02.513Z,10.63
2018-01-17T18:32:33.076Z,10.43
2018-01-17T18:35:00.308Z,8.70
2018-01-17T18:37:27.464Z,8.90
2018-01-17T18:39:54.311Z,11.53
2018-01-17T18:42:20.941Z,9.63
2018-01-17T18:44:48.517Z,9.80
2018-01-17T18:47:15.174Z,10.77
2018-01-17T18:49:41.907Z,9.90
2018-01-17T18:52:09.679Z,9.83
2018-01-17T18:54:36.536Z,9.33
2018-01-17T18:57:03.477Z,9.27
2018-01-17T18:59:30.225Z,10.37
2018-01-17T19:01:56.983Z,10.93
2018-01-17T19:04:23.718Z,10.17
2018-01-17T19:06:50.563Z,10.37
2018-01-17T19:09:17.515Z,10.13
2018-01-17T19:11:44.575Z,10.13
2018-01-17T19:14:11.822Z,9.43
2018-01-17T19:16:38.578Z,8.73
2018-01-17T19:19:05.687Z,9.23
2018-01-17T19:21:33.701Z,8.60
2018-01-17T19:24:00.859Z,9.63
2018-01-17T19:26:28.220Z,8.30
2018-01-17T19:28:55.065Z,9.67
2018-01-17T19:31:22.528Z,9.47
2018-01-17T19:33:50.097Z,9.30
2018-01-17T19:36:17.863Z,9.33
2018-01-17T19:38:44.610Z,8.63
2018-01-17T19:41:12.178Z,8.23
2018-01-17T19:43:38.920Z,7.77
2018-01-17T19:46:05.768Z,8.73
2018-01-17T19:48:32.822Z,8.10
2018-01-17T19:51:00.390Z,8.73
2018-01-17T19:53:27.337Z,8.30
2018-01-17T19:55:54.187Z,8.40
2018-01-17T19:58:21.039Z,9.77
2018-01-17T20:00:47.986Z,9.23
2018-01-17T20:03:15.346Z,9.13
2018-01-17T20:05:44.142Z,8.27
2018-01-17T20:08:11.193Z,8.70
2018-01-17T20:10:38.556Z,8.83
2018-01-17T20:13:05.619Z,8.27
2018-01-17T20:15:32.457Z,8.60
2018-01-17T20:17:59.818Z,8.27
2018-01-17T20:20:26.667Z,8.10
2018-01-17T20:23:00.682Z,8.00
2018-01-17T20:25:27.869Z,8.50
2018-01-17T20:27:54.986Z,8.87
2018-01-17T20:30:22.346Z,8.93
2018-01-17T20:32:49.399Z,7.50
2018-01-17T20:35:16.145Z,8.37
2018-01-17T20:37:42.895Z,7.97
2018-01-17T20:40:09.638Z,9.17
2018-01-17T20:42:39.203Z,7.90
2018-01-17T20:45:06.716Z,7.43
2018-01-17T20:47:33.392Z,8.87
2018-01-17T20:50:00.097Z,8.57
2018-01-17T20:52:26.955Z,8.73
2018-01-17T20:54:53.707Z,7.40
2018-01-17T20:57:20.496Z,8.03
2018-01-17T20:59:47.405Z,8.77
2018-01-17T21:02:15.065Z,10.20
2018-01-17T21:04:41.810Z,8.80
2018-01-17T21:07:08.557Z,9.20
2018-01-17T21:09:35.816Z,8.73
2018-01-17T21:12:02.562Z,9.20
2018-01-17T21:14:29.664Z,9.00
2018-01-17T21:16:56.775Z,8.70
2018-01-17T21:19:24.322Z,9.30
2018-01-17T21:21:51.078Z,8.57
2018-01-17T21:24:17.930Z,8.07
2018-01-17T21:26:44.778Z,8.17
2018-01-17T21:29:12.343Z,8.10
2018-01-17T21:31:39.839Z,9.03
2018-01-17T21:34:06.657Z,8.17
2018-01-17T21:36:33.705Z,8.50
2018-01-17T21:39:00.864Z,8.77
2018-01-17T21:41:27.606Z,8.60
2018-01-17T21:44:00.598Z,8.73
2018-01-17T21:46:27.341Z,7.83
2018-01-17T21:48:54.064Z,9.20
2018-01-17T21:51:21.654Z,8.60
2018-01-17T21:53:48.501Z,8.13
2018-01-17T21:56:17.065Z,7.80
2018-01-17T21:58:44.140Z,8.60
2018-01-17T22:01:10.787Z,8.93
2018-01-17T22:03:37.514Z,7.97
2018-01-17T22:08:36.347Z,9.40
2018-01-17T22:11:04.529Z,8.80
2018-01-17T22:13:31.886Z,7.20
2018-01-17T22:15:58.638Z,7.03
2018-01-17T22:18:26.319Z,7.43
2018-01-17T22:20:54.292Z,8.67
2018-01-17T22:23:21.431Z,8.93
2018-01-17T22:25:48.687Z,7.97
2018-01-17T22:28:15.640Z,7.23
2018-01-17T22:30:42.489Z,8.17
2018-01-17T22:33:09.338Z,8.00
2018-01-17T22:35:36.496Z,7.10
2018-01-17T22:38:03.547Z,8.20
2018-01-17T22:40:31.006Z,8.53
2018-01-17T22:42:58.250Z,7.80
2018-01-17T22:45:27.983Z,7.73
2018-01-17T22:47:55.956Z,8.30
2018-01-17T22:50:23.828Z,7.70
2018-01-17T22:52:51.211Z,7.90
2018-01-17T22:55:20.798Z,8.87
2018-01-17T22:57:47.750Z,8.40
2018-01-17T23:00:19.609Z,8.27
2018-01-17T23:02:46.765Z,7.53
2018-01-17T23:05:14.128Z,6.80
2018-01-17T23:07:42.000Z,7.40
2018-01-17T23:10:11.098Z,8.50
2018-01-17T23:12:38.662Z,7.83
2018-01-17T23:15:05.510Z,7.57
2018-01-17T23:17:32.667Z,6.93
2018-01-17T23:20:00.648Z,7.90
2018-01-17T23:22:27.680Z,6.40
2018-01-17T23:24:56.488Z,7.33
2018-01-17T23:27:23.646Z,8.27
2018-01-17T23:29:51.009Z,8.70
2018-01-17T23:32:19.284Z,6.50
2018-01-17T23:34:46.545Z,8.60
2018-01-17T23:37:13.290Z,8.50
2018-01-17T23:39:42.155Z,7.90
2018-01-17T23:42:09.340Z,8.37
2018-01-17T23:44:40.667Z,8.53
2018-01-17T23:47:07.948Z,8.80
2018-01-17T23:49:35.312Z,7.93
2018-01-17T23:52:04.052Z,7.00
2018-01-17T23:54:33.059Z,8.77
2018-01-17T23:57:01.843Z,8.37
2018-01-17T23:59:29.456Z,7.43
